createdAt,value
2019-05-17T00:00:17.937Z,61.17
2019-05-17T00:02:46.563Z,61.27
2019-05-17T00:05:12.950Z,61.25
2019-05-17T00:07:40.402Z,61.37
2019-05-17T00:10:08.022Z,61.29
2019-05-17T00:12:36.769Z,61.45
2019-05-17T00:15:03.229Z,61.34
2019-05-17T00:17:30.684Z,61.45
2019-05-17T00:19:58.186Z,61.37
2019-05-17T00:22:26.999Z,61.19
2019-05-17T00:24:53.114Z,61.21
2019-05-17T00:27:20.562Z,61.33
2019-05-17T00:29:48.063Z,61.43
2019-05-17T00:32:17.079Z,61.50
2019-05-17T00:34:42.998Z,61.64
2019-05-17T00:37:10.459Z,61.69
2019-05-17T00:39:37.919Z,61.75
2019-05-17T00:42:07.017Z,61.89
2019-05-17T00:44:32.908Z,62.04
2019-05-17T00:47:00.458Z,62.29
2019-05-17T00:49:27.919Z,62.42
2019-05-17T00:51:56.749Z,62.61
2019-05-17T00:54:23.197Z,62.98
2019-05-17T00:56:50.706Z,63.38
2019-05-17T00:59:18.217Z,63.52
2019-05-17T01:01:46.862Z,63.65
2019-05-17T01:04:13.231Z,63.69
2019-05-17T01:06:40.688Z,63.75
2019-05-17T01:09:08.219Z,63.62
2019-05-17T01:11:36.607Z,63.61
2019-05-17T01:14:03.222Z,63.68
2019-05-17T01:16:30.669Z,63.76
2019-05-17T01:18:58.118Z,64.00
2019-05-17T01:21:26.284Z,63.94
2019-05-17T01:23:53.047Z,63.88
2019-05-17T01:26:20.487Z,64.04
2019-05-17T01:28:47.937Z,64.52
2019-05-17T01:31:17.288Z,65.05
2019-05-17T01:33:42.923Z,65.71
2019-05-17T01:36:10.461Z,66.19
2019-05-17T01:38:37.960Z,66.44
2019-05-17T01:41:06.972Z,66.59
2019-05-17T01:43:32.866Z,66.59
2019-05-17T01:46:00.332Z,66.53
2019-05-17T01:48:27.786Z,66.63
2019-05-17T01:50:56.814Z,66.61
2019-05-17T01:53:22.746Z,66.57
2019-05-17T01:55:50.205Z,66.66
2019-05-17T01:58:17.657Z,66.67
2019-05-17T02:00:46.551Z,66.60
2019-05-17T02:03:12.625Z,66.60
2019-05-17T02:05:40.078Z,66.60
2019-05-17T02:08:07.597Z,66.61
2019-05-17T02:10:37.286Z,66.63
2019-05-17T02:13:02.531Z,66.80
2019-05-17T02:15:29.975Z,66.92
2019-05-17T02:17:57.493Z,66.91
2019-05-17T02:20:27.382Z,66.91
2019-05-17T02:22:52.402Z,67.06
2019-05-17T02:25:19.876Z,67.26
2019-05-17T02:27:47.335Z,67.38
2019-05-17T02:30:14.979Z,67.34
2019-05-17T02:32:43.057Z,67.42
2019-05-17T02:35:09.854Z,67.51
2019-05-17T02:37:37.344Z,67.43
2019-05-17T02:40:08.263Z,67.42
2019-05-17T02:42:33.264Z,67.48
2019-05-17T02:45:02.880Z,67.38
2019-05-17T02:47:27.417Z,67.26
2019-05-17T02:49:54.860Z,67.20
2019-05-17T02:52:23.001Z,66.84
2019-05-17T02:54:52.697Z,67.11
2019-05-17T02:57:17.492Z,67.18
2019-05-17T02:59:45.488Z,67.19
2019-05-17T03:02:12.965Z,67.19
2019-05-17T03:04:43.280Z,67.26
2019-05-17T03:07:07.959Z,67.45
2019-05-17T03:09:35.406Z,67.74
2019-05-17T03:12:03.514Z,68.08
2019-05-17T03:14:32.755Z,68.23
2019-05-17T03:16:57.956Z,68.19
2019-05-17T03:19:25.409Z,68.21
2019-05-17T03:21:53.519Z,68.28
2019-05-17T03:24:22.601Z,67.41
2019-05-17T03:26:47.968Z,67.44
2019-05-17T03:29:15.423Z,67.31
2019-05-17T03:31:51.098Z,67.30
2019-05-17T03:34:15.925Z,67.21
2019-05-17T03:36:37.956Z,66.95
2019-05-17T03:39:05.428Z,66.91
2019-05-17T03:41:34.046Z,66.71
2019-05-17T03:44:03.289Z,66.57
2019-05-17T03:46:27.929Z,66.47
2019-05-17T03:48:55.393Z,66.50
2019-05-17T03:51:23.437Z,66.69
2019-05-17T03:53:53.091Z,66.77
2019-05-17T03:56:17.908Z,66.75
2019-05-17T03:58:45.374Z,66.83
2019-05-17T04:01:14.012Z,66.82
2019-05-17T04:03:43.511Z,66.60
2019-05-17T04:06:07.851Z,66.70
2019-05-17T04:08:35.319Z,66.94
2019-05-17T04:11:17.607Z,66.97
2019-05-17T04:13:33.564Z,66.83
2019-05-17T04:15:57.808Z,66.68
2019-05-17T04:18:25.269Z,66.65
2019-05-17T04:20:52.991Z,66.70
2019-05-17T04:23:22.997Z,66.90
2019-05-17T04:25:47.808Z,66.95
2019-05-17T04:28:15.277Z,67.12
2019-05-17T04:30:43.389Z,67.30
2019-05-17T04:33:12.853Z,67.61
2019-05-17T04:35:37.847Z,67.54
2019-05-17T04:38:05.323Z,67.33
2019-05-17T04:40:34.041Z,67.20
2019-05-17T04:43:02.974Z,67.06
2019-05-17T04:45:27.928Z,66.87
2019-05-17T04:47:56.006Z,66.70
2019-05-17T04:50:23.492Z,66.60
2019-05-17T04:52:53.693Z,66.20
2019-05-17T04:55:18.461Z,65.96
2019-05-17T04:57:45.930Z,65.65
2019-05-17T05:00:13.514Z,65.69
2019-05-17T05:02:43.579Z,65.83
2019-05-17T05:05:08.403Z,65.79
2019-05-17T05:07:35.978Z,65.66
2019-05-17T05:10:03.541Z,65.40
2019-05-17T05:12:33.851Z,65.04
2019-05-17T05:15:03.522Z,64.77
2019-05-17T05:17:28.842Z,64.99
2019-05-17T05:19:57.110Z,64.91
2019-05-17T05:22:24.556Z,64.80
2019-05-17T05:24:52.480Z,64.60
2019-05-17T05:27:22.159Z,64.19
2019-05-17T05:29:47.541Z,63.98
2019-05-17T05:32:15.027Z,63.99
2019-05-17T05:34:42.953Z,63.88
2019-05-17T05:37:12.418Z,63.52
2019-05-17T05:39:38.424Z,63.38
2019-05-17T05:42:10.285Z,63.05
2019-05-17T05:44:33.372Z,62.65
2019-05-17T05:47:02.159Z,61.77
2019-05-17T05:49:28.406Z,61.59
2019-05-17T05:51:56.013Z,62.11
2019-05-17T05:54:23.488Z,61.86
2019-05-17T05:56:52.495Z,61.06
2019-05-17T05:59:18.432Z,60.43
2019-05-17T06:01:45.912Z,59.97
2019-05-17T06:04:13.378Z,59.49
2019-05-17T06:06:41.647Z,59.71
2019-05-17T06:09:07.430Z,59.76
2019-05-17T06:11:34.430Z,59.51
2019-05-17T06:14:01.733Z,59.28
2019-05-17T06:16:28.470Z,58.45
2019-05-17T06:18:55.463Z,58.19
2019-05-17T06:21:22.757Z,57.82
2019-05-17T06:23:51.661Z,57.59
2019-05-17T06:26:18.200Z,56.89
2019-05-17T06:28:44.087Z,56.67
2019-05-17T06:31:11.070Z,56.69
2019-05-17T06:33:38.083Z,56.66
2019-05-17T06:36:05.105Z,56.38
2019-05-17T06:38:32.931Z,56.01
2019-05-17T06:41:01.456Z,55.64
2019-05-17T06:43:26.455Z,55.22
2019-05-17T06:45:53.535Z,54.55
2019-05-17T06:48:22.542Z,53.80
2019-05-17T06:50:47.589Z,53.41
2019-05-17T06:53:14.593Z,52.97
2019-05-17T06:55:42.365Z,52.71
2019-05-17T06:58:08.694Z,52.82
2019-05-17T07:00:35.694Z,52.96
2019-05-17T07:03:02.739Z,52.42
2019-05-17T07:05:29.975Z,52.14
2019-05-17T07:07:57.361Z,51.64
2019-05-17T07:10:24.460Z,51.32
2019-05-17T07:12:58.608Z,51.10
2019-05-17T07:15:19.855Z,51.19
2019-05-17T07:17:45.561Z,51.04
2019-05-17T07:20:12.675Z,50.88
2019-05-17T07:22:40.930Z,50.86
2019-05-17T07:25:06.884Z,51.09
2019-05-17T07:27:41.584Z,50.70
2019-05-17T07:30:01.262Z,50.25
2019-05-17T07:32:29.732Z,49.62
2019-05-17T07:34:55.307Z,49.10
2019-05-17T07:37:23.569Z,49.16
2019-05-17T07:39:58.592Z,48.71
2019-05-17T07:42:19.564Z,49.04
2019-05-17T07:44:45.009Z,49.04
2019-05-17T07:47:12.005Z,49.42
2019-05-17T07:49:40.489Z,49.72
2019-05-17T07:52:06.243Z,50.03
2019-05-17T07:54:33.492Z,49.60
2019-05-17T07:57:00.505Z,49.48
2019-05-17T07:59:29.443Z,49.48
2019-05-17T08:01:54.796Z,49.79
2019-05-17T08:04:21.790Z,49.55
2019-05-17T08:06:50.503Z,49.03
2019-05-17T08:09:15.838Z,48.84
2019-05-17T08:11:42.879Z,48.69
2019-05-17T08:14:10.551Z,48.40
2019-05-17T08:16:39.373Z,48.29
2019-05-17T08:19:04.012Z,48.64
2019-05-17T08:21:31.008Z,48.02
2019-05-17T08:24:00.112Z,47.89
2019-05-17T08:26:25.354Z,48.10
2019-05-17T08:28:52.332Z,48.76
2019-05-17T08:31:20.218Z,49.25
2019-05-17T08:33:46.431Z,49.92
2019-05-17T08:36:13.418Z,49.54
2019-05-17T08:38:40.443Z,49.43
2019-05-17T08:41:10.331Z,49.15
2019-05-17T08:43:43.188Z,49.27
2019-05-17T08:46:02.637Z,49.28
2019-05-17T08:48:29.471Z,49.65
2019-05-17T08:50:55.733Z,49.54
2019-05-17T08:53:22.730Z,49.60
2019-05-17T08:55:50.350Z,48.98
2019-05-17T08:58:17.415Z,48.56
2019-05-17T09:00:44.515Z,48.36
2019-05-17T09:03:11.502Z,48.10
2019-05-17T09:05:41.392Z,47.63
2019-05-17T09:08:05.588Z,46.84
2019-05-17T09:10:32.576Z,46.07
2019-05-17T09:12:59.826Z,45.53
2019-05-17T09:15:26.687Z,45.10
2019-05-17T09:17:53.757Z,44.01
2019-05-17T09:20:20.752Z,43.20
2019-05-17T09:22:50.845Z,43.56
2019-05-17T09:25:18.990Z,43.83
2019-05-17T09:27:42.493Z,44.11
2019-05-17T09:30:09.601Z,44.50
2019-05-17T09:32:40.134Z,44.69
2019-05-17T09:35:04.488Z,45.00
2019-05-17T09:37:31.501Z,45.02
2019-05-17T09:39:59.842Z,45.20
2019-05-17T09:42:25.659Z,45.45
2019-05-17T09:44:52.722Z,45.35
2019-05-17T09:47:20.632Z,45.33
2019-05-17T09:49:46.741Z,45.57
2019-05-17T09:52:13.759Z,45.55
2019-05-17T09:54:45.058Z,45.18
2019-05-17T09:57:09.896Z,45.26
2019-05-17T09:59:35.123Z,45.14
2019-05-17T10:02:02.107Z,44.91
2019-05-17T10:04:30.454Z,44.89
2019-05-17T10:06:56.254Z,44.64
2019-05-17T10:09:23.252Z,44.74
2019-05-17T10:11:50.340Z,45.26
2019-05-17T10:14:25.759Z,45.39
2019-05-17T10:16:44.370Z,45.89
2019-05-17T10:19:11.522Z,45.71
2019-05-17T10:21:39.925Z,45.35
2019-05-17T10:24:05.554Z,45.43
2019-05-17T10:26:32.684Z,46.04
2019-05-17T10:28:59.699Z,46.62
2019-05-17T10:31:26.711Z,46.84
2019-05-17T10:33:53.722Z,46.65
2019-05-17T10:36:20.722Z,46.39
2019-05-17T10:38:50.021Z,46.84
2019-05-17T10:41:14.878Z,46.63
2019-05-17T10:43:41.887Z,46.13
2019-05-17T10:46:10.554Z,46.11
2019-05-17T10:48:35.892Z,45.59
2019-05-17T10:51:02.875Z,46.33
2019-05-17T10:53:29.995Z,45.41
2019-05-17T10:55:57.025Z,44.92
2019-05-17T10:58:24.036Z,45.08
2019-05-17T11:03:23.485Z,45.01
2019-05-17T11:05:50.926Z,44.44
2019-05-17T11:08:19.767Z,44.09
2019-05-17T11:10:45.010Z,44.86
2019-05-17T11:13:12.005Z,46.75
2019-05-17T11:15:39.018Z,45.87
2019-05-17T11:18:06.062Z,45.04
2019-05-17T11:20:33.304Z,45.06
2019-05-17T11:23:00.325Z,44.20
2019-05-17T11:25:27.356Z,44.24
2019-05-17T11:27:54.403Z,43.94
2019-05-17T11:30:22.286Z,44.33
2019-05-17T11:32:49.351Z,43.79
2019-05-17T11:35:16.339Z,43.50
2019-05-17T11:37:43.345Z,43.88
2019-05-17T11:40:10.325Z,43.96
2019-05-17T11:42:37.462Z,44.46
2019-05-17T11:45:04.460Z,45.59
2019-05-17T11:47:31.459Z,46.45
2019-05-17T11:49:58.465Z,46.09
2019-05-17T11:52:25.473Z,46.49
2019-05-17T11:54:52.487Z,46.35
2019-05-17T11:57:19.469Z,46.18
2019-05-17T11:59:46.528Z,46.88
2019-05-17T12:02:13.526Z,47.84
2019-05-17T12:04:40.504Z,47.98
2019-05-17T12:07:07.983Z,49.14
2019-05-17T12:09:37.715Z,49.30
2019-05-17T12:12:03.004Z,48.24
2019-05-17T12:14:30.460Z,47.49
2019-05-17T12:16:58.641Z,48.26
2019-05-17T12:19:26.119Z,47.83
2019-05-17T12:21:53.563Z,47.01
2019-05-17T12:24:21.201Z,46.87
2019-05-17T12:26:49.360Z,47.08
2019-05-17T12:29:16.816Z,46.50
2019-05-17T12:31:44.601Z,45.77
2019-05-17T12:34:12.101Z,45.49
2019-05-17T12:36:39.654Z,45.95
2019-05-17T12:39:07.116Z,46.15
2019-05-17T12:41:34.728Z,46.38
2019-05-17T12:44:02.407Z,46.85
2019-05-17T12:46:29.885Z,47.03
2019-05-17T12:48:57.348Z,47.28
2019-05-17T12:51:24.821Z,47.39
2019-05-17T12:53:52.393Z,47.85
2019-05-17T12:56:19.851Z,48.02
2019-05-17T12:58:47.316Z,48.58
2019-05-17T13:01:14.799Z,49.35
2019-05-17T13:03:43.560Z,50.12
2019-05-17T13:06:11.062Z,50.47
2019-05-17T13:08:39.198Z,50.99
2019-05-17T13:11:06.668Z,51.49
2019-05-17T13:13:34.252Z,52.20
2019-05-17T13:16:16.729Z,51.44
2019-05-17T13:18:29.291Z,51.75
2019-05-17T13:20:56.772Z,51.60
2019-05-17T13:23:24.349Z,52.66
2019-05-17T13:25:51.834Z,53.90
2019-05-17T13:28:19.375Z,54.75
2019-05-17T13:30:47.079Z,55.13
2019-05-17T13:33:14.533Z,56.73
2019-05-17T13:35:42.034Z,57.58
2019-05-17T13:38:09.667Z,57.21
2019-05-17T13:40:39.911Z,57.21
2019-05-17T13:43:04.611Z,56.87
2019-05-17T13:45:32.100Z,57.12
2019-05-17T13:47:59.567Z,57.00
2019-05-17T13:50:27.263Z,57.89
2019-05-17T13:52:54.781Z,58.30
2019-05-17T13:55:22.264Z,58.54
2019-05-17T13:57:49.918Z,58.70
2019-05-17T14:00:17.410Z,58.83
2019-05-17T14:02:44.899Z,58.76
2019-05-17T14:05:12.375Z,58.48
2019-05-17T14:07:39.859Z,57.45
2019-05-17T14:10:07.328Z,57.61
2019-05-17T14:12:34.825Z,57.76
2019-05-17T14:15:02.291Z,57.96
2019-05-17T14:17:29.788Z,57.60
2019-05-17T14:19:57.294Z,57.85
2019-05-17T14:22:24.816Z,57.14
2019-05-17T14:24:52.259Z,56.70
2019-05-17T14:27:19.701Z,57.29
2019-05-17T14:29:47.394Z,58.37
2019-05-17T14:32:14.991Z,59.48
2019-05-17T14:34:42.407Z,59.85
2019-05-17T14:37:09.964Z,60.17
2019-05-17T14:39:37.444Z,60.55
2019-05-17T14:42:04.935Z,59.83
2019-05-17T14:44:32.432Z,58.96
2019-05-17T14:46:59.885Z,58.60
2019-05-17T14:49:27.363Z,58.76
2019-05-17T14:51:54.850Z,59.07
2019-05-17T14:54:22.890Z,58.15
2019-05-17T14:56:50.425Z,58.22
2019-05-17T14:59:17.905Z,57.52
2019-05-17T15:01:45.358Z,58.05
2019-05-17T15:04:12.803Z,57.62
2019-05-17T15:06:40.383Z,57.62
2019-05-17T15:09:11.333Z,57.40
2019-05-17T15:11:35.413Z,57.61
2019-05-17T15:14:02.966Z,57.34
2019-05-17T15:16:30.419Z,56.59
2019-05-17T15:18:57.943Z,56.65
2019-05-17T15:21:25.420Z,56.68
2019-05-17T15:23:52.875Z,56.26
2019-05-17T15:26:20.541Z,56.33
2019-05-17T15:28:48.048Z,55.94
2019-05-17T15:31:15.539Z,55.80
2019-05-17T15:33:43.154Z,55.51
2019-05-17T15:36:10.609Z,55.26
2019-05-17T15:38:38.197Z,55.05
2019-05-17T15:41:05.671Z,55.21
2019-05-17T15:43:33.155Z,55.53
2019-05-17T15:46:00.777Z,55.95
2019-05-17T15:48:28.250Z,56.02
2019-05-17T15:50:55.845Z,56.16
2019-05-17T15:53:23.369Z,56.30
2019-05-17T15:55:51.041Z,56.08
2019-05-17T15:58:18.522Z,55.97
2019-05-17T16:00:46.053Z,54.86
2019-05-17T16:03:13.576Z,54.77
2019-05-17T16:05:41.212Z,54.20
2019-05-17T16:08:08.805Z,54.74
2019-05-17T16:10:36.295Z,54.77
2019-05-17T16:13:03.866Z,55.34
2019-05-17T16:15:31.419Z,56.36
2019-05-17T16:17:59.818Z,57.56
2019-05-17T16:20:27.529Z,58.68
2019-05-17T16:22:56.264Z,59.00
2019-05-17T16:25:23.780Z,59.44
2019-05-17T16:27:51.611Z,59.97
2019-05-17T16:30:19.121Z,60.54
2019-05-17T16:32:46.644Z,61.13
2019-05-17T16:35:14.671Z,61.24
2019-05-17T16:37:42.168Z,60.79
2019-05-17T16:40:09.645Z,60.41
2019-05-17T16:42:37.153Z,60.63
2019-05-17T16:45:05.460Z,60.60
2019-05-17T16:47:33.784Z,60.63
2019-05-17T16:50:01.328Z,61.44
2019-05-17T16:52:28.790Z,61.43
2019-05-17T16:54:56.238Z,61.62
2019-05-17T16:57:23.711Z,61.31
2019-05-17T16:59:51.317Z,61.10
2019-05-17T17:02:19.607Z,60.38
2019-05-17T17:04:47.102Z,60.31
2019-05-17T17:07:14.697Z,59.70
2019-05-17T17:09:42.152Z,60.12
2019-05-17T17:12:09.626Z,60.42
2019-05-17T17:14:37.131Z,60.49
2019-05-17T17:17:10.922Z,60.70
2019-05-17T17:19:32.229Z,60.96
2019-05-17T17:22:00.705Z,61.13
2019-05-17T17:24:28.317Z,61.65
2019-05-17T17:26:55.906Z,61.92
2019-05-17T17:29:23.933Z,61.44
2019-05-17T17:31:51.859Z,61.46
2019-05-17T17:34:19.470Z,61.61
2019-05-17T17:36:46.919Z,61.97
2019-05-17T17:39:14.372Z,62.65
2019-05-17T17:41:42.046Z,62.94
2019-05-17T17:44:09.511Z,63.46
2019-05-17T17:46:37.346Z,63.02
2019-05-17T17:49:04.904Z,63.58
2019-05-17T17:51:32.607Z,63.47
2019-05-17T17:54:00.103Z,63.37
2019-05-17T17:56:27.551Z,63.88
2019-05-17T17:58:55.055Z,64.37
2019-05-17T18:01:22.514Z,63.98
2019-05-17T18:03:50.228Z,64.68
2019-05-17T18:06:17.813Z,65.20
2019-05-17T18:08:46.269Z,65.31
2019-05-17T18:11:14.713Z,65.68
2019-05-17T18:13:43.443Z,66.35
2019-05-17T18:16:10.909Z,66.44
2019-05-17T18:18:38.394Z,66.45
2019-05-17T18:21:05.870Z,67.73
2019-05-17T18:23:33.327Z,67.93
2019-05-17T18:26:00.826Z,67.63
2019-05-17T18:31:02.290Z,68.90
2019-05-17T18:33:29.833Z,69.44
2019-05-17T18:35:57.428Z,70.33
2019-05-17T18:38:25.029Z,70.77
2019-05-17T18:40:52.593Z,71.04
2019-05-17T18:43:20.059Z,71.38
2019-05-17T18:45:47.654Z,71.24
2019-05-17T18:48:15.115Z,71.33
2019-05-17T18:50:42.746Z,72.51
2019-05-17T18:53:16.471Z,72.56
2019-05-17T18:55:37.946Z,72.97
2019-05-17T18:58:05.512Z,72.46
2019-05-17T19:00:33.132Z,73.11
2019-05-17T19:03:00.616Z,73.59
2019-05-17T19:05:28.089Z,73.13
2019-05-17T19:07:55.603Z,73.06
2019-05-17T19:10:23.066Z,73.42
2019-05-17T19:12:50.596Z,73.52
2019-05-17T19:15:18.060Z,74.03
2019-05-17T19:17:45.619Z,73.58
2019-05-17T19:20:13.138Z,73.94
2019-05-17T19:22:41.290Z,74.27
2019-05-17T19:25:08.187Z,73.62
2019-05-17T19:27:35.661Z,73.09
2019-05-17T19:30:03.151Z,72.84
2019-05-17T19:32:30.670Z,72.78
2019-05-17T19:34:58.153Z,72.59
2019-05-17T19:37:25.764Z,72.63
2019-05-17T19:39:53.215Z,72.63
2019-05-17T19:42:23.170Z,72.80
2019-05-17T19:44:58.538Z,72.99
2019-05-17T19:47:15.940Z,72.80
2019-05-17T19:49:43.413Z,73.24
2019-05-17T19:52:11.703Z,73.41
2019-05-17T19:54:39.280Z,72.95
2019-05-17T19:57:06.817Z,72.81
2019-05-17T19:59:34.360Z,73.27
2019-05-17T20:02:01.930Z,73.54
2019-05-17T20:04:29.437Z,74.35
2019-05-17T20:06:56.902Z,74.78
2019-05-17T20:09:24.353Z,75.18
2019-05-17T20:11:51.806Z,75.33
2019-05-17T20:14:19.302Z,75.05
2019-05-17T20:16:46.947Z,74.76
2019-05-17T20:19:14.444Z,75.37
2019-05-17T20:21:42.113Z,75.55
2019-05-17T20:24:09.897Z,75.34
2019-05-17T20:26:37.511Z,74.94
2019-05-17T20:29:05.137Z,74.81
2019-05-17T20:31:32.615Z,74.99
2019-05-17T20:34:00.095Z,75.24
2019-05-17T20:36:27.716Z,75.28
2019-05-17T20:38:56.091Z,75.49
2019-05-17T20:41:24.203Z,75.59
2019-05-17T20:43:51.810Z,75.54
2019-05-17T20:46:19.320Z,75.67
2019-05-17T20:48:46.815Z,75.61
2019-05-17T20:51:14.347Z,75.41
2019-05-17T20:53:41.834Z,75.32
2019-05-17T20:56:09.336Z,75.46
2019-05-17T20:58:37.733Z,75.97
2019-05-17T21:01:05.254Z,76.16
2019-05-17T21:03:32.764Z,76.46
2019-05-17T21:06:00.284Z,76.23
2019-05-17T21:08:27.950Z,76.34
2019-05-17T21:10:55.435Z,76.30
2019-05-17T21:13:22.911Z,76.59
2019-05-17T21:15:50.383Z,76.77
2019-05-17T21:18:17.859Z,76.72
2019-05-17T21:20:45.356Z,76.48
2019-05-17T21:23:13.564Z,76.45
2019-05-17T21:25:41.211Z,76.40
2019-05-17T21:28:08.807Z,76.51
2019-05-17T21:30:36.320Z,76.27
2019-05-17T21:33:03.863Z,76.14
2019-05-17T21:35:31.493Z,76.23
2019-05-17T21:37:58.967Z,76.25
2019-05-17T21:40:26.492Z,76.81
2019-05-17T21:42:54.064Z,77.19
2019-05-17T21:45:21.634Z,77.14
2019-05-17T21:47:49.090Z,77.19
2019-05-17T21:50:16.662Z,77.50
2019-05-17T21:52:44.249Z,77.58
2019-05-17T21:55:11.756Z,77.69
2019-05-17T21:57:39.280Z,77.84
2019-05-17T22:00:06.805Z,78.03
2019-05-17T22:02:34.837Z,78.08
2019-05-17T22:05:06.515Z,78.01
2019-05-17T22:07:34.080Z,78.14
2019-05-17T22:10:02.675Z,78.05
2019-05-17T22:12:30.300Z,77.99
2019-05-17T22:14:57.894Z,78.19
2019-05-17T22:17:25.349Z,78.20
2019-05-17T22:19:52.823Z,78.32
2019-05-17T22:22:20.315Z,78.50
2019-05-17T22:24:47.825Z,78.49
2019-05-17T22:27:17.229Z,78.44
2019-05-17T22:29:44.777Z,78.60
2019-05-17T22:32:12.294Z,78.71
2019-05-17T22:34:39.828Z,78.90
2019-05-17T22:37:08.436Z,78.92
2019-05-17T22:39:36.620Z,78.91
2019-05-17T22:42:04.125Z,78.86
2019-05-17T22:44:31.646Z,78.65
2019-05-17T22:46:59.136Z,78.88
2019-05-17T22:49:26.918Z,79.18
2019-05-17T22:51:54.374Z,79.15
2019-05-17T22:54:21.919Z,79.49
2019-05-17T22:56:49.453Z,79.71
2019-05-17T22:59:17.127Z,79.93
2019-05-17T23:01:44.606Z,80.00
2019-05-17T23:04:12.959Z,80.04
2019-05-17T23:06:40.489Z,79.85
2019-05-17T23:09:08.046Z,79.50
2019-05-17T23:11:35.598Z,79.46
2019-05-17T23:14:03.090Z,79.58
2019-05-17T23:16:30.611Z,79.33
2019-05-17T23:19:03.598Z,79.20
2019-05-17T23:21:31.085Z,79.20
2019-05-17T23:23:58.599Z,78.84
2019-05-17T23:26:26.075Z,78.86
2019-05-17T23:28:53.676Z,78.55
2019-05-17T23:31:21.194Z,78.47
2019-05-17T23:33:49.267Z,78.47
2019-05-17T23:36:16.747Z,78.61
2019-05-17T23:38:44.277Z,78.48
2019-05-17T23:41:11.750Z,78.69
2019-05-17T23:43:39.335Z,78.59
2019-05-17T23:46:06.796Z,78.52
2019-05-17T23:48:34.286Z,78.55
2019-05-17T23:51:01.730Z,78.60
2019-05-17T23:53:29.219Z,78.46
2019-05-17T23:55:56.683Z,78.29
2019-05-17T23:58:24.228Z,78.31
